Time;durP1;ratioP1;P1;durP2;ratioP2;P2;SDS_P1;SDS_P2;PMS_P1;PMS_P2;Temp;Humidity;BMP_temperature;BMP_pressure;BME280_temperature;BME280_humidity;BME280_pressure;Samples;Min_cycle;Max_cycle;Signal;HPM_P1;HPM_P2
2021/05/15 00:00:35;;;;;;;4.85;3.85;;;;;;;7.86;100.00;100015.34;3578040;40;20413;-60
2021/05/15 00:03:01;;;;;;;5.88;4.00;;;;;;;7.71;100.00;100009.84;3578082;40;20076;-53
2021/05/15 00:05:27;;;;;;;4.90;4.28;;;;;;;7.88;100.00;100016.25;3578433;40;20536;-56
2021/05/15 00:07:53;;;;;;;5.05;3.75;;;;;;;8.21;100.00;100020.47;3578372;40;20082;-55
2021/05/15 00:10:21;;;;;;;4.53;3.65;;;;;;;8.20;100.00;100014.50;3579372;40;20096;-52
2021/05/15 00:12:47;;;;;;;6.13;4.00;;;;;;;7.78;100.00;100019.38;3579873;40;20041;-59
2021/05/15 00:15:14;;;;;;;4.57;4.03;;;;;;;7.61;100.00;100016.38;3580012;40;20137;-55
2021/05/15 00:17:41;;;;;;;6.20;4.90;;;;;;;7.48;100.00;100016.88;3579617;40;20145;-57
2021/05/15 00:20:12;;;;;;;5.82;4.40;;;;;;;8.05;100.00;100022.63;3579578;40;20161;-55
2021/05/15 00:22:40;;;;;;;8.48;4.28;;;;;;;8.33;100.00;100025.88;3574619;40;20045;-59
2021/05/15 00:25:07;;;;;;;5.57;4.60;;;;;;;8.01;100.00;100017.44;3578000;40;20432;-59
2021/05/15 00:27:33;;;;;;;7.05;4.50;;;;;;;7.47;100.00;100017.69;3579313;40;20326;-54
2021/05/15 00:29:59;;;;;;;5.85;4.80;;;;;;;7.82;100.00;100022.06;3579874;40;20049;-55
2021/05/15 00:32:25;;;;;;;6.40;4.65;;;;;;;7.68;100.00;100018.28;3578769;40;20288;-53
2021/05/15 00:34:52;;;;;;;6.90;5.15;;;;;;;7.43;100.00;100024.38;3577989;40;20045;-55
2021/05/15 00:37:18;;;;;;;10.05;5.10;;;;;;;7.52;100.00;100024.63;3578822;40;20459;-57
2021/05/15 00:39:44;;;;;;;7.57;4.72;;;;;;;7.68;100.00;100019.97;3580215;40;20045;-58
2021/05/15 00:42:10;;;;;;;6.95;5.18;;;;;;;7.30;100.00;100020.66;3579759;40;20150;-49
2021/05/15 00:44:45;;;;;;;6.53;4.68;;;;;;;7.55;100.00;100022.19;3578089;40;20045;-57
2021/05/15 00:47:21;;;;;;;9.45;5.72;;;;;;;7.75;100.00;100021.84;3577978;40;20097;-59
2021/05/15 00:49:50;;;;;;;7.32;4.60;;;;;;;7.76;100.00;100016.78;3579027;40;20037;-59
2021/05/15 00:52:16;;;;;;;6.82;5.30;;;;;;;7.58;100.00;100019.72;3578709;40;20052;-55
2021/05/15 00:54:43;;;;;;;7.65;4.78;;;;;;;7.46;100.00;100023.63;3577585;40;20093;-55
2021/05/15 00:57:11;;;;;;;8.20;5.40;;;;;;;7.44;100.00;100021.03;3578191;40;20061;-53
2021/05/15 00:59:37;;;;;;;5.85;4.88;;;;;;;7.73;100.00;100023.50;3579490;40;20050;-55
2021/05/15 01:02:05;;;;;;;6.10;5.20;;;;;;;7.14;100.00;100021.91;3580151;40;20092;-55
2021/05/15 01:04:31;;;;;;;7.03;5.10;;;;;;;7.62;100.00;100024.06;3578096;40;20583;-59
2021/05/15 01:06:59;;;;;;;7.90;4.57;;;;;;;7.73;100.00;100026.06;3577693;40;20056;-56
2021/05/15 01:09:25;;;;;;;7.05;4.63;;;;;;;7.66;100.00;100022.47;3579201;40;20060;-55
2021/05/15 01:11:50;;;;;;;6.57;4.32;;;;;;;7.55;100.00;100026.41;3579690;40;20041;-53
2021/05/15 01:14:16;;;;;;;6.97;5.38;;;;;;;7.50;100.00;100033.06;3579276;40;20318;-56
2021/05/15 01:16:42;;;;;;;6.50;5.53;;;;;;;7.13;100.00;100025.25;3578253;40;20322;-58
2021/05/15 01:19:08;;;;;;;7.80;5.60;;;;;;;7.52;100.00;100027.19;3578546;40;20053;-56
2021/05/15 01:21:34;;;;;;;6.70;5.53;;;;;;;7.31;100.00;100031.72;3578942;40;20059;-58
2021/05/15 01:24:02;;;;;;;7.80;5.15;;;;;;;6.92;100.00;100011.91;3579689;40;20052;-60
2021/05/15 01:26:30;;;;;;;17.95;6.72;;;;;;;6.64;100.00;100017.84;3577748;40;20088;-52
2021/05/15 01:28:59;;;;;;;8.65;6.50;;;;;;;6.47;100.00;100008.84;3578101;40;20111;-57
2021/05/15 01:31:26;;;;;;;9.15;6.03;;;;;;;6.60;100.00;100006.72;3579249;40;20040;-55
2021/05/15 01:33:52;;;;;;;11.02;6.80;;;;;;;6.48;100.00;100002.97;3579429;40;20045;-60
2021/05/15 01:36:19;;;;;;;8.45;6.63;;;;;;;6.41;100.00;99995.94;3578419;40;20056;-54
2021/05/15 01:38:46;;;;;;;8.75;6.63;;;;;;;6.35;100.00;99999.16;3577920;40;20049;-55
2021/05/15 01:41:14;;;;;;;9.18;6.45;;;;;;;6.56;100.00;100007.47;3576700;40;20105;-55
2021/05/15 01:43:41;;;;;;;9.95;6.53;;;;;;;6.78;100.00;100010.63;3578201;40;20437;-56
2021/05/15 01:46:08;;;;;;;7.75;6.65;;;;;;;6.87;100.00;100010.91;3578031;40;20052;-57
2021/05/15 01:48:34;;;;;;;7.85;6.53;;;;;;;6.85;100.00;100000.69;3577495;40;20065;-57
2021/05/15 01:51:07;;;;;;;8.55;7.00;;;;;;;6.50;100.00;100002.16;3577518;40;20225;-56
2021/05/15 01:53:36;;;;;;;9.68;6.93;;;;;;;6.22;100.00;100004.66;3576573;40;20053;-55
2021/05/15 01:56:04;;;;;;;8.52;7.25;;;;;;;6.12;100.00;99995.88;3577003;40;20084;-59
2021/05/15 01:58:29;;;;;;;10.45;7.60;;;;;;;6.04;100.00;100000.72;3577357;40;20053;-58
2021/05/15 02:00:55;;;;;;;9.75;7.20;;;;;;;5.95;100.00;99997.88;3577453;40;20150;-56
2021/05/15 02:03:22;;;;;;;8.65;7.07;;;;;;;6.64;100.00;100010.22;3577908;40;20041;-51
2021/05/15 02:05:52;;;;;;;9.30;7.10;;;;;;;6.65;100.00;100009.41;3579211;40;20060;-54
2021/05/15 02:08:19;;;;;;;8.68;6.97;;;;;;;6.33;100.00;99996.59;3577458;40;20145;-57
2021/05/15 02:10:45;;;;;;;9.88;7.20;;;;;;;6.10;100.00;99992.41;3576063;40;20045;-56
2021/05/15 02:13:11;;;;;;;10.25;7.32;;;;;;;6.32;100.00;99994.81;3577530;40;20115;-55
2021/05/15 02:15:39;;;;;;;9.50;7.15;;;;;;;6.81;100.00;99998.88;3579020;40;20084;-54
2021/05/15 02:18:07;;;;;;;7.88;7.05;;;;;;;6.89;100.00;99994.88;3578778;40;20056;-52
2021/05/15 02:20:34;;;;;;;11.10;7.47;;;;;;;7.02;100.00;99996.06;3577447;40;20064;-56
2021/05/15 02:23:00;;;;;;;9.70;7.25;;;;;;;7.31;100.00;99993.50;3582838;40;20196;-57
2021/05/15 02:25:27;;;;;;;9.15;7.38;;;;;;;7.16;100.00;99988.84;3577355;40;20065;-52
2021/05/15 02:27:54;;;;;;;9.35;7.65;;;;;;;7.17;100.00;99984.63;3577605;40;20102;-58
2021/05/15 02:30:22;;;;;;;8.55;7.65;;;;;;;7.39;100.00;99985.25;3578346;40;20154;-58
2021/05/15 02:32:48;;;;;;;10.35;7.75;;;;;;;7.35;100.00;99978.34;3579036;40;20056;-55
2021/05/15 02:35:14;;;;;;;9.57;7.45;;;;;;;7.46;100.00;99976.09;3577899;40;20318;-56
2021/05/15 02:37:40;;;;;;;10.50;8.27;;;;;;;7.01;100.00;99978.22;3577093;40;20402;-56
2021/05/15 02:40:07;;;;;;;10.70;7.03;;;;;;;7.11;100.00;99975.13;3577249;40;20145;-53
2021/05/15 02:42:35;;;;;;;8.60;7.15;;;;;;;6.70;100.00;99972.28;3578644;40;20173;-54
2021/05/15 02:45:00;;;;;;;9.13;7.38;;;;;;;6.99;100.00;99962.06;3578904;40;20207;-58
2021/05/15 02:47:26;;;;;;;9.30;7.28;;;;;;;7.02;100.00;99964.69;3577019;40;20041;-56
2021/05/15 02:49:52;;;;;;;10.38;7.50;;;;;;;6.83;100.00;99959.06;3577198;40;20133;-51
2021/05/15 02:52:17;;;;;;;9.70;7.60;;;;;;;7.36;100.00;99953.75;3577871;40;20056;-54
2021/05/15 02:54:43;;;;;;;8.30;6.90;;;;;;;7.11;100.00;99970.88;3580307;40;20481;-58
2021/05/15 02:57:09;;;;;;;9.32;6.88;;;;;;;7.20;100.00;99972.81;3577096;40;20048;-57
2021/05/15 02:59:36;;;;;;;10.00;7.75;;;;;;;7.37;100.00;99966.50;3576555;40;20415;-56
2021/05/15 03:02:03;;;;;;;8.88;7.30;;;;;;;7.08;100.00;99960.63;3577045;40;20078;-52
2021/05/15 03:04:29;;;;;;;8.65;7.13;;;;;;;7.33;100.00;99959.59;3576855;40;20198;-57
2021/05/15 03:06:55;;;;;;;8.48;7.30;;;;;;;7.38;100.00;99962.28;3576682;40;20376;-57
2021/05/15 03:09:20;;;;;;;12.25;7.30;;;;;;;7.01;100.00;99955.31;3578434;40;20389;-52
2021/05/15 03:11:46;;;;;;;8.02;6.80;;;;;;;7.22;100.00;99965.25;3578343;40;20586;-59
2021/05/15 03:14:12;;;;;;;8.90;6.63;;;;;;;7.23;100.00;99959.31;3578488;40;20071;-58
2021/05/15 03:16:38;;;;;;;8.57;7.40;;;;;;;7.38;100.00;99954.63;3581578;40;20352;-54
2021/05/15 03:19:05;;;;;;;7.45;6.65;;;;;;;7.13;100.00;99958.22;3579578;40;20141;-58
2021/05/15 03:21:31;;;;;;;8.75;5.95;;;;;;;7.24;100.00;99946.63;3581955;40;20057;-53
2021/05/15 03:23:57;;;;;;;8.55;6.93;;;;;;;7.22;100.00;99955.06;3577853;40;20333;-52
2021/05/15 03:26:22;;;;;;;8.13;6.43;;;;;;;7.14;100.00;99949.75;3578907;40;20200;-58
2021/05/15 03:28:48;;;;;;;7.80;6.30;;;;;;;6.75;100.00;99941.84;3578384;40;20422;-56
2021/05/15 03:31:14;;;;;;;8.75;6.53;;;;;;;7.04;100.00;99938.47;3578953;40;20056;-58
2021/05/15 03:33:40;;;;;;;7.72;6.93;;;;;;;6.99;100.00;99934.06;3580629;40;20094;-57
2021/05/15 03:36:05;;;;;;;9.00;6.90;;;;;;;7.51;100.00;99938.00;3579656;40;20048;-53
2021/05/15 03:38:32;;;;;;;14.80;7.28;;;;;;;7.11;100.00;99930.16;3578046;40;20066;-56
2021/05/15 03:40:58;;;;;;;9.93;7.05;;;;;;;6.89;100.00;99936.34;3578443;40;20342;-57
2021/05/15 03:43:24;;;;;;;8.15;7.15;;;;;;;6.77;100.00;99933.44;3579682;40;20057;-51
2021/05/15 03:45:53;;;;;;;13.80;7.65;;;;;;;6.78;100.00;99930.09;3579673;40;20033;-54
2021/05/15 03:48:20;;;;;;;7.80;7.00;;;;;;;6.95;100.00;99924.63;3578760;40;20060;-53
2021/05/15 03:50:55;;;;;;;9.07;7.32;;;;;;;6.87;100.00;99919.31;3578049;40;20320;-53
2021/05/15 03:53:21;;;;;;;12.63;7.70;;;;;;;7.74;100.00;99926.69;3579258;40;20065;-54
2021/05/15 03:55:47;;;;;;;7.57;6.70;;;;;;;8.13;100.00;99919.16;3579856;40;20053;-58
2021/05/15 03:58:15;;;;;;;8.00;6.70;;;;;;;7.88;100.00;99927.88;3578051;40;20060;-56
2021/05/15 04:00:41;;;;;;;8.40;6.65;;;;;;;7.57;100.00;99928.81;3578497;40;20345;-57
2021/05/15 04:03:07;;;;;;;8.32;6.50;;;;;;;7.72;100.00;99928.34;3578427;40;20366;-58
2021/05/15 04:05:33;;;;;;;7.68;5.68;;;;;;;7.80;100.00;99919.19;3578352;40;20111;-59
2021/05/15 04:07:59;;;;;;;10.10;6.35;;;;;;;7.38;100.00;99924.94;3579522;40;20463;-53
2021/05/15 04:10:25;;;;;;;7.82;5.90;;;;;;;7.54;100.00;99925.34;3577961;40;20049;-58
2021/05/15 04:13:06;;;;;;;6.38;5.57;;;;;;;8.18;100.00;99929.47;3574751;40;20398;-60
2021/05/15 04:15:42;;;;;;;5.32;4.80;;;;;;;8.66;100.00;99924.59;3578441;40;20053;-58
2021/05/15 04:18:14;;;;;;;7.22;4.55;;;;;;;8.22;100.00;99930.38;3578786;40;20396;-54
2021/05/15 04:20:42;;;;;;;7.18;4.88;;;;;;;8.02;100.00;99919.72;3578890;40;20044;-50
2021/05/15 04:23:08;;;;;;;7.57;4.93;;;;;;;8.60;100.00;99932.13;3579351;40;20067;-59
2021/05/15 04:25:35;;;;;;;4.85;4.45;;;;;;;8.68;100.00;99932.25;3577682;40;20712;-55
2021/05/15 04:28:01;;;;;;;4.78;4.32;;;;;;;8.26;100.00;99922.81;3575000;40;20057;-53
2021/05/15 04:30:27;;;;;;;4.85;4.38;;;;;;;8.55;100.00;99933.72;3578261;40;20402;-53
2021/05/15 04:32:53;;;;;;;5.32;4.03;;;;;;;8.56;100.00;99932.03;3578345;40;20069;-59
2021/05/15 04:35:20;;;;;;;5.13;4.00;;;;;;;8.85;100.00;99938.59;3584148;40;20306;-54
2021/05/15 04:37:46;;;;;;;4.78;4.32;;;;;;;8.82;100.00;99940.22;3577684;40;20223;-60
2021/05/15 04:40:12;;;;;;;5.95;3.63;;;;;;;9.13;98.55;99944.25;3578802;40;20171;-55
2021/05/15 04:42:39;;;;;;;4.43;3.75;;;;;;;8.91;99.85;99943.81;3574771;40;20044;-58
2021/05/15 04:45:11;;;;;;;4.35;3.35;;;;;;;9.01;100.00;99938.88;3578283;40;20067;-56
2021/05/15 04:47:37;;;;;;;4.22;3.70;;;;;;;9.06;100.00;99940.72;3577916;40;20060;-57
2021/05/15 04:50:05;;;;;;;3.97;3.58;;;;;;;8.73;100.00;99942.56;3577772;40;20446;-57
2021/05/15 04:52:30;;;;;;;4.28;3.35;;;;;;;8.90;100.00;99941.22;3578196;40;20065;-58
2021/05/15 04:54:56;;;;;;;4.53;2.65;;;;;;;8.73;100.00;99942.56;3578268;40;20307;-55
2021/05/15 04:57:22;;;;;;;3.15;2.85;;;;;;;8.86;99.43;99955.63;3579273;40;20063;-55
2021/05/15 04:59:48;;;;;;;3.40;2.95;;;;;;;8.79;98.58;99958.03;3579473;40;20060;-56
2021/05/15 05:02:13;;;;;;;3.75;2.55;;;;;;;9.00;99.12;99960.16;3578841;40;20056;-56
2021/05/15 05:04:39;;;;;;;3.67;3.15;;;;;;;9.14;97.14;99961.28;3578428;40;20139;-58
2021/05/15 05:07:05;;;;;;;3.90;2.70;;;;;;;9.39;95.79;99967.75;3577899;40;20053;-58
2021/05/15 05:09:31;;;;;;;2.80;2.60;;;;;;;9.30;95.98;99970.13;3578509;40;20056;-54
2021/05/15 05:11:57;;;;;;;4.07;3.08;;;;;;;9.24;96.48;99967.44;3579495;40;20307;-53
2021/05/15 05:14:23;;;;;;;6.03;3.30;;;;;;;9.24;97.36;99972.53;3577228;40;20051;-55
2021/05/15 05:16:54;;;;;;;7.38;3.30;;;;;;;9.48;96.59;99970.47;3576683;40;20198;-56
2021/05/15 05:19:21;;;;;;;3.03;2.53;;;;;;;9.56;95.71;99974.00;3578490;40;20292;-54
2021/05/15 05:21:46;;;;;;;4.15;2.85;;;;;;;9.76;94.70;99981.19;3577934;40;20084;-58
2021/05/15 05:24:12;;;;;;;2.90;2.60;;;;;;;9.68;95.16;99978.47;3578634;40;20049;-56
2021/05/15 05:26:38;;;;;;;2.70;2.50;;;;;;;9.60;96.97;99978.34;3579175;40;20051;-59
2021/05/15 05:29:09;;;;;;;3.08;2.78;;;;;;;9.50;96.96;99970.47;3579749;40;20124;-55
2021/05/15 05:31:36;;;;;;;3.22;2.45;;;;;;;9.54;94.71;99972.28;3577715;40;20048;-55
2021/05/15 05:34:03;;;;;;;3.28;2.53;;;;;;;9.53;95.75;99966.28;3577667;40;20413;-55
2021/05/15 05:36:30;;;;;;;3.22;2.47;;;;;;;9.77;94.71;99968.41;3577419;40;20068;-58
2021/05/15 05:38:56;;;;;;;3.38;2.47;;;;;;;9.70;94.46;99964.88;3577189;40;20060;-53
2021/05/15 05:41:24;;;;;;;3.95;2.50;;;;;;;10.27;92.71;99965.84;3578059;40;20052;-53
2021/05/15 05:43:53;;;;;;;3.65;2.78;;;;;;;10.39;91.84;99971.13;3581915;40;20168;-58
2021/05/15 05:46:20;;;;;;;3.40;2.60;;;;;;;10.87;89.08;99966.69;3579611;40;20152;-60
2021/05/15 05:48:45;;;;;;;3.33;1.95;;;;;;;10.87;88.82;99975.22;3578917;40;20418;-58
2021/05/15 05:51:12;;;;;;;2.38;2.08;;;;;;;10.61;91.31;99969.75;3583524;40;20055;-57
2021/05/15 05:53:38;;;;;;;4.50;2.72;;;;;;;10.98;87.12;99972.78;3583789;40;20067;-58
2021/05/15 05:56:04;;;;;;;4.07;2.70;;;;;;;11.12;86.46;99978.94;3577892;40;20224;-60
2021/05/15 05:58:30;;;;;;;2.75;2.55;;;;;;;11.24;86.62;99972.25;3577543;40;20061;-55
2021/05/15 06:00:56;;;;;;;3.85;3.15;;;;;;;11.30;87.01;99970.63;3577918;40;20056;-59
2021/05/15 06:03:24;;;;;;;3.22;2.88;;;;;;;11.29;86.79;99968.03;3578855;40;20045;-57
2021/05/15 06:05:50;;;;;;;4.85;3.30;;;;;;;11.53;86.83;99964.88;3579238;40;20417;-59
2021/05/15 06:08:17;;;;;;;4.45;3.25;;;;;;;11.26;86.56;99965.44;3577242;40;20056;-57
2021/05/15 06:10:46;;;;;;;6.05;3.38;;;;;;;11.03;89.00;99983.09;3579298;40;20048;-56
2021/05/15 06:13:18;;;;;;;6.13;3.58;;;;;;;11.33;87.83;99977.50;3578489;40;20045;-56
2021/05/15 06:15:44;;;;;;;4.78;3.95;;;;;;;11.31;87.79;99977.44;3579856;40;20105;-57
2021/05/15 06:18:10;;;;;;;7.00;4.70;;;;;;;11.29;88.28;99971.47;3579485;40;20092;-56
2021/05/15 06:20:37;;;;;;;6.45;4.40;;;;;;;11.48;88.40;99969.97;3576950;40;20057;-57
2021/05/15 06:23:03;;;;;;;8.82;7.03;;;;;;;11.58;89.10;99968.34;3576872;40;20203;-57
2021/05/15 06:25:29;;;;;;;13.45;7.55;;;;;;;11.78;88.18;99965.94;3580898;40;20080;-58
2021/05/15 06:27:55;;;;;;;9.95;7.72;;;;;;;11.97;89.08;99973.00;3581041;40;20044;-57
2021/05/15 06:30:21;;;;;;;12.70;8.25;;;;;;;11.95;88.40;99970.41;3580378;40;20326;-56
2021/05/15 06:32:47;;;;;;;10.10;7.85;;;;;;;12.32;87.59;99970.72;3579004;40;20388;-57
2021/05/15 06:35:14;;;;;;;10.50;8.63;;;;;;;12.39;87.05;99971.63;3583606;40;20068;-57
2021/05/15 06:37:39;;;;;;;10.00;8.27;;;;;;;12.69;86.24;99970.94;3578942;40;20044;-54
2021/05/15 06:40:10;;;;;;;10.23;8.85;;;;;;;12.89;85.47;99971.03;3579645;40;20314;-57
2021/05/15 06:42:36;;;;;;;9.88;8.80;;;;;;;12.96;83.88;99976.22;3572750;40;20069;-56
2021/05/15 06:45:04;;;;;;;12.93;9.55;;;;;;;13.19;84.17;99981.44;3582865;40;20033;-57
2021/05/15 06:47:30;;;;;;;13.85;9.30;;;;;;;13.43;82.58;99984.97;3581009;40;20053;-53
2021/05/15 06:49:56;;;;;;;11.05;9.23;;;;;;;13.63;81.08;99988.44;3585735;40;20039;-57
2021/05/15 06:52:22;;;;;;;15.48;10.73;;;;;;;13.87;79.98;99987.66;3584233;40;20306;-56
2021/05/15 06:54:48;;;;;;;12.07;10.30;;;;;;;13.86;81.63;99980.75;3580844;40;20060;-54
2021/05/15 06:57:13;;;;;;;15.73;11.15;;;;;;;13.83;78.51;99974.78;3576709;40;20085;-56
2021/05/15 06:59:39;;;;;;;15.63;10.20;;;;;;;14.24;79.08;99980.78;3587695;39;20037;-57
2021/05/15 07:02:05;;;;;;;14.40;11.55;;;;;;;14.59;76.74;99977.31;3582607;40;20133;-59
2021/05/15 07:04:31;;;;;;;15.20;11.23;;;;;;;14.54;74.95;99973.03;3581068;40;20048;-58
2021/05/15 07:06:56;;;;;;;10.85;9.55;;;;;;;14.76;74.68;99982.44;3577935;40;20315;-56
2021/05/15 07:09:22;;;;;;;13.13;9.60;;;;;;;14.91;73.45;99974.66;3581085;40;20060;-57
2021/05/15 07:11:51;;;;;;;12.10;9.57;;;;;;;15.17;73.03;99973.69;3576480;40;20077;-59
2021/05/15 07:14:17;;;;;;;15.63;9.85;;;;;;;15.24;71.93;99971.06;3582053;40;20107;-58
2021/05/15 07:16:43;;;;;;;10.50;9.05;;;;;;;15.38;72.65;99971.00;3582756;40;20088;-54
2021/05/15 07:19:10;;;;;;;19.45;11.35;;;;;;;15.44;71.27;99968.41;3586091;40;20040;-54
2021/05/15 07:21:36;;;;;;;14.63;11.32;;;;;;;15.72;71.04;99963.94;3586083;40;20083;-57
2021/05/15 07:24:02;;;;;;;12.95;10.57;;;;;;;15.88;70.36;99972.41;3585521;39;20491;-55
2021/05/15 07:26:28;;;;;;;13.65;10.65;;;;;;;16.08;68.38;99973.97;3585939;39;20053;-57
2021/05/15 07:28:54;;;;;;;12.15;9.98;;;;;;;16.17;69.46;99971.31;3588455;40;20060;-50
2021/05/15 07:31:19;;;;;;;11.70;10.52;;;;;;;16.86;67.89;99975.81;3576501;40;20068;-52
2021/05/15 07:33:45;;;;;;;11.88;9.73;;;;;;;17.16;66.58;99972.03;3580987;40;20196;-56
2021/05/15 07:36:11;;;;;;;13.45;9.93;;;;;;;16.82;65.94;99966.38;3589051;39;20341;-59
2021/05/15 07:38:37;;;;;;;11.20;9.77;;;;;;;16.32;65.30;99963.44;3591122;39;20053;-58
2021/05/15 07:41:04;;;;;;;14.95;10.93;;;;;;;16.02;68.01;99954.25;3584864;40;20055;-60
2021/05/15 07:43:31;;;;;;;13.60;9.95;;;;;;;15.99;66.74;99962.00;3585655;39;20338;-55
2021/05/15 07:45:58;;;;;;;10.68;9.23;;;;;;;16.04;66.58;99961.13;3586758;40;20066;-51
2021/05/15 07:48:29;;;;;;;11.65;9.73;;;;;;;16.14;67.16;99955.88;3587105;40;20083;-57
2021/05/15 07:50:59;;;;;;;13.52;9.90;;;;;;;16.17;68.78;99956.69;3582391;40;20134;-57
2021/05/15 07:53:26;;;;;;;12.50;9.50;;;;;;;16.24;66.87;99947.16;3586485;39;20096;-52
2021/05/15 07:55:53;;;;;;;12.90;11.43;;;;;;;16.02;68.87;99946.50;3585239;40;20048;-59
2021/05/15 07:58:21;;;;;;;15.50;12.00;;;;;;;16.39;69.34;99947.00;3582401;39;20325;-55
2021/05/15 08:00:47;;;;;;;12.52;10.60;;;;;;;16.29;66.09;99951.41;3582955;39;20314;-53
2021/05/15 08:03:16;;;;;;;12.32;11.02;;;;;;;16.22;67.49;99946.28;3586439;39;20321;-58
2021/05/15 08:05:42;;;;;;;13.98;10.75;;;;;;;16.25;67.16;99946.28;3586099;40;20066;-52
2021/05/15 08:08:07;;;;;;;13.85;11.32;;;;;;;16.49;65.69;99951.19;3582465;40;20318;-53
2021/05/15 08:10:33;;;;;;;13.32;11.05;;;;;;;16.65;64.21;99951.91;3583180;39;20394;-56
2021/05/15 08:13:00;;;;;;;11.27;10.00;;;;;;;16.52;65.39;99947.75;3585795;40;20044;-53
2021/05/15 08:15:27;;;;;;;14.77;11.70;;;;;;;17.04;63.74;99955.78;3593069;39;20057;-54
2021/05/15 08:17:53;;;;;;;15.23;10.32;;;;;;;17.48;63.00;99954.34;3585525;40;20052;-57
2021/05/15 08:20:20;;;;;;;12.43;9.77;;;;;;;18.41;61.48;99954.56;3581893;39;20036;-53
2021/05/15 08:22:46;;;;;;;9.98;8.65;;;;;;;19.13;57.26;99954.91;3582952;40;20399;-55
2021/05/15 08:25:14;;;;;;;9.73;8.52;;;;;;;18.02;59.12;99950.91;3582619;40;20056;-54
2021/05/15 08:27:43;;;;;;;9.48;8.52;;;;;;;18.80;59.60;99952.13;3585101;39;20044;-55
2021/05/15 08:30:16;;;;;;;13.80;9.30;;;;;;;18.69;58.73;99948.91;3589594;40;20660;-55
2021/05/15 08:32:42;;;;;;;13.02;10.07;;;;;;;18.44;58.42;99949.34;3585792;39;20045;-56
2021/05/15 08:35:08;;;;;;;10.25;8.90;;;;;;;18.72;57.43;99952.28;3590528;40;20052;-55
2021/05/15 08:37:34;;;;;;;10.07;8.90;;;;;;;18.88;59.58;99952.84;3590640;39;20044;-52
2021/05/15 08:40:00;;;;;;;11.52;9.48;;;;;;;19.19;57.94;99955.66;3589183;39;20141;-55
2021/05/15 08:42:28;;;;;;;10.38;8.95;;;;;;;19.33;56.89;99950.16;3591456;39;20049;-54
2021/05/15 08:44:57;;;;;;;11.90;8.68;;;;;;;19.02;57.94;99953.41;3582276;40;20057;-53
2021/05/15 08:47:23;;;;;;;9.75;8.43;;;;;;;18.91;58.26;99952.78;3589987;39;20157;-56
2021/05/15 08:49:51;;;;;;;9.27;8.35;;;;;;;19.10;57.67;99947.22;3591117;39;20056;-56
2021/05/15 08:52:18;;;;;;;9.40;7.43;;;;;;;18.96;59.32;99945.75;3586872;39;20113;-53
2021/05/15 08:54:46;;;;;;;9.70;7.80;;;;;;;19.27;55.89;99947.69;3591846;39;20083;-57
2021/05/15 08:57:12;;;;;;;8.65;7.32;;;;;;;18.95;57.52;99944.06;3591312;39;20433;-54
2021/05/15 08:59:42;;;;;;;8.68;7.60;;;;;;;18.72;56.24;99946.22;3592503;39;20091;-54
2021/05/15 09:02:10;;;;;;;7.85;7.03;;;;;;;19.06;56.93;99947.25;3591604;39;20064;-53
2021/05/15 09:04:58;;;;;;;8.98;6.60;;;;;;;18.73;58.30;99946.22;3589514;39;20121;-56
2021/05/15 09:07:25;;;;;;;7.53;6.35;;;;;;;19.08;55.52;99945.47;3590241;39;20040;-52
2021/05/15 09:09:53;;;;;;;9.15;6.93;;;;;;;18.97;57.73;99939.69;3590757;39;20041;-51
2021/05/15 09:12:20;;;;;;;8.32;6.95;;;;;;;19.14;56.17;99946.25;3585449;39;20040;-55
2021/05/15 09:15:01;;;;;;;8.98;6.80;;;;;;;19.29;57.26;99945.91;3589749;40;20051;-52
2021/05/15 09:17:51;;;;;;;7.40;6.70;;;;;;;20.05;56.10;99946.72;3592148;39;20376;-52
2021/05/15 09:20:26;;;;;;;6.38;5.78;;;;;;;20.03;51.79;99943.31;3586629;40;20045;-51
2021/05/15 09:22:54;;;;;;;4.35;4.00;;;;;;;20.62;53.98;99939.25;3585160;40;20412;-51
2021/05/15 09:25:22;;;;;;;6.32;5.72;;;;;;;20.59;49.53;99950.56;3583338;40;20053;-55
2021/05/15 09:27:49;;;;;;;5.60;5.10;;;;;;;20.34;50.60;99945.16;3584583;40;20102;-52
2021/05/15 09:30:17;;;;;;;4.63;4.22;;;;;;;20.74;51.61;99949.28;3585484;39;20060;-55
2021/05/15 09:32:44;;;;;;;5.35;4.85;;;;;;;21.15;50.57;99935.06;3584682;40;20299;-58
2021/05/15 09:35:21;;;;;;;4.45;4.05;;;;;;;21.23;48.85;99942.66;3586169;40;20314;-50
2021/05/15 09:37:51;;;;;;;5.32;4.28;;;;;;;21.02;49.10;99937.19;3594749;39;20044;-53
2021/05/15 09:40:25;;;;;;;5.00;4.60;;;;;;;20.92;48.04;99937.50;3580977;39;20045;-51
2021/05/15 09:43:08;;;;;;;5.40;4.90;;;;;;;20.73;49.17;99937.19;3580109;40;20080;-56
2021/05/15 09:45:37;;;;;;;5.45;4.50;;;;;;;20.78;49.60;99935.28;3578591;40;20068;-57
2021/05/15 09:48:08;;;;;;;6.88;4.35;;;;;;;20.97;49.14;99935.63;3578561;40;20068;-51
2021/05/15 09:50:38;;;;;;;6.03;4.55;;;;;;;20.10;50.60;99920.63;3580091;40;21081;-54
2021/05/15 09:53:13;;;;;;;4.30;3.90;;;;;;;19.56;49.43;99927.13;3580365;40;20055;-53
2021/05/15 09:55:42;;;;;;;;;;;;;;;19.56;51.96;99923.69;3578928;40;20056;-56
2021/05/15 09:58:10;;;;;;;3.15;2.80;;;;;;;19.56;51.44;99921.94;3579896;40;19944;-51
2021/05/15 10:00:54;;;;;;;5.80;3.03;;;;;;;19.81;49.82;99922.22;3582767;39;20059;-53
2021/05/15 10:03:32;;;;;;;2.88;2.05;;;;;;;20.05;48.05;99918.13;3586803;40;20044;-50
2021/05/15 10:06:00;;;;;;;1.65;1.55;;;;;;;19.92;48.45;99913.28;3584741;40;20376;-55
2021/05/15 10:08:28;;;;;;;3.25;2.03;;;;;;;19.76;48.60;99915.44;3579791;40;20056;-50
2021/05/15 10:10:55;;;;;;;2.10;2.00;;;;;;;20.90;49.07;99913.28;3581699;40;20088;-55
2021/05/15 10:13:23;;;;;;;1.58;1.35;;;;;;;22.31;43.49;99920.94;3583518;39;20067;-54
2021/05/15 10:15:53;;;;;;;2.13;1.70;;;;;;;22.88;40.86;99911.06;3585168;39;20060;-50
2021/05/15 10:18:20;;;;;;;2.38;1.48;;;;;;;22.88;41.53;99909.31;3582685;40;20425;-47
2021/05/15 10:20:49;;;;;;;1.10;1.00;;;;;;;22.11;39.69;99912.94;3581647;40;20398;-57
2021/05/15 10:23:22;;;;;;;1.77;1.42;;;;;;;23.03;39.08;99913.13;3576839;40;20048;-50
2021/05/15 10:25:59;;;;;;;0.90;0.90;;;;;;;23.39;38.56;99910.00;3582816;40;20343;-49
2021/05/15 10:28:31;;;;;;;1.23;0.90;;;;;;;23.09;40.06;99902.44;3587800;39;20052;-48
2021/05/15 10:31:16;;;;;;;2.70;0.80;;;;;;;23.42;39.03;99904.63;3587081;40;20050;-54
2021/05/15 10:33:50;;;;;;;1.30;1.00;;;;;;;22.91;39.43;99904.91;3588063;40;20044;-51
2021/05/15 10:36:22;;;;;;;4.05;1.40;;;;;;;23.90;38.08;99900.97;3586858;40;20045;-54
2021/05/15 10:38:53;;;;;;;1.10;0.90;;;;;;;25.23;35.15;99895.06;3588668;39;20052;-51
2021/05/15 10:41:26;;;;;;;1.58;0.80;;;;;;;26.74;32.65;99896.22;3586384;40;20072;-55
2021/05/15 10:43:56;;;;;;;2.25;1.00;;;;;;;27.17;31.31;99898.22;3588472;39;20424;-52
2021/05/15 10:46:28;;;;;;;1.13;0.70;;;;;;;26.98;31.50;99889.63;3587874;40;20104;-61
2021/05/15 10:49:08;;;;;;;0.80;0.60;;;;;;;25.61;33.32;99889.75;3588234;39;20322;-50
2021/05/15 10:51:45;;;;;;;0.60;0.60;;;;;;;26.50;31.98;99887.88;3587604;40;20098;-48
2021/05/15 10:54:15;;;;;;;1.10;0.57;;;;;;;26.69;30.24;99887.75;3587202;40;20068;-56
2021/05/15 10:56:49;;;;;;;0.60;0.40;;;;;;;24.51;33.98;99872.19;3588340;40;20059;-50
2021/05/15 10:59:21;;;;;;;2.08;0.70;;;;;;;23.32;37.65;99861.50;3588252;40;20060;-52
2021/05/15 11:01:54;;;;;;;0.95;0.50;;;;;;;22.13;36.95;99868.56;3594363;39;20452;-54
2021/05/15 11:04:27;;;;;;;0.57;0.50;;;;;;;21.42;39.97;99863.09;3587360;40;20052;-58
2021/05/15 11:07:04;;;;;;;0.93;0.55;;;;;;;21.42;39.71;99864.84;3588974;39;20077;-54
2021/05/15 11:09:36;;;;;;;1.17;0.50;;;;;;;21.19;40.44;99860.34;3589180;40;20049;-55
2021/05/15 11:12:15;;;;;;;2.00;0.60;;;;;;;20.25;42.37;99851.78;3588780;39;20048;-53
2021/05/15 11:14:47;;;;;;;4.75;0.60;;;;;;;20.82;43.69;99851.88;3588869;40;20044;-56
2021/05/15 11:17:18;;;;;;;0.77;0.60;;;;;;;20.46;43.08;99847.72;3587571;40;20052;-56
2021/05/15 11:19:57;;;;;;;1.50;0.60;;;;;;;20.40;43.26;99840.09;3578300;40;20112;-57
2021/05/15 11:22:41;;;;;;;2.42;0.98;;;;;;;19.81;45.01;99848.63;3588873;39;20414;-51
2021/05/15 11:25:14;;;;;;;2.58;0.90;;;;;;;19.86;46.28;99851.94;3588685;39;20036;-53
2021/05/15 11:27:55;;;;;;;0.93;0.60;;;;;;;19.80;45.92;99852.13;3589903;39;20062;-50
2021/05/15 11:30:25;;;;;;;0.60;0.60;;;;;;;21.05;43.99;99850.34;3588738;39;20044;-56
2021/05/15 11:33:04;;;;;;;1.73;0.50;;;;;;;21.80;44.47;99846.19;3588466;39;20056;-48